createdAt,value
2017-09-20T00:00:47.529Z,57.50
2017-09-20T00:03:15.053Z,57.30
2017-09-20T00:05:42.578Z,57.30
2017-09-20T00:08:10.099Z,57.40
2017-09-20T00:10:38.414Z,57.40
2017-09-20T00:13:05.944Z,57.40
2017-09-20T00:15:34.242Z,57.00
2017-09-20T00:18:01.769Z,57.00
2017-09-20T00:20:29.293Z,56.80
2017-09-20T00:22:56.849Z,56.90
2017-09-20T00:25:24.383Z,56.90
2017-09-20T00:27:51.908Z,56.70
2017-09-20T00:30:19.430Z,56.80
2017-09-20T00:32:46.953Z,56.80
2017-09-20T00:35:14.507Z,56.80
2017-09-20T00:37:42.034Z,56.60
2017-09-20T00:40:09.557Z,56.70
2017-09-20T00:42:37.082Z,56.70
2017-09-20T00:45:04.610Z,56.40
2017-09-20T00:47:32.170Z,56.50
2017-09-20T00:49:59.698Z,56.40
2017-09-20T00:52:27.222Z,56.50
2017-09-20T00:54:54.748Z,56.60
2017-09-20T00:57:22.274Z,56.60
2017-09-20T00:59:49.822Z,56.50
2017-09-20T01:02:17.349Z,56.80
2017-09-20T01:04:44.890Z,56.60
2017-09-20T01:07:13.191Z,56.70
2017-09-20T01:09:40.720Z,56.70
2017-09-20T01:12:09.314Z,56.90
2017-09-20T01:14:37.603Z,56.80
2017-09-20T01:17:05.126Z,56.70
2017-09-20T01:19:32.650Z,56.60
2017-09-20T01:22:24.807Z,56.60
2017-09-20T01:24:52.334Z,56.80
2017-09-20T01:27:19.866Z,57.10
2017-09-20T01:29:47.413Z,57.00
2017-09-20T01:32:15.710Z,56.80
2017-09-20T01:34:43.239Z,56.80
2017-09-20T01:37:11.535Z,56.30
2017-09-20T01:39:39.064Z,56.30
2017-09-20T01:42:06.622Z,56.40
2017-09-20T01:44:34.150Z,56.40
2017-09-20T01:47:01.674Z,56.50
2017-09-20T01:49:29.199Z,56.40
2017-09-20T01:51:56.721Z,56.30
2017-09-20T01:54:24.281Z,56.20
2017-09-20T01:56:51.809Z,56.10
2017-09-20T01:59:19.330Z,56.30
2017-09-20T02:01:46.869Z,56.20
2017-09-20T02:04:14.395Z,56.20
2017-09-20T02:06:42.010Z,56.10
2017-09-20T02:09:09.530Z,56.10
2017-09-20T02:11:37.062Z,56.10
2017-09-20T02:14:04.634Z,56.10
2017-09-20T02:16:32.170Z,56.30
2017-09-20T02:18:59.722Z,56.10
2017-09-20T02:21:28.010Z,55.90
2017-09-20T02:23:55.534Z,55.90
2017-09-20T02:26:23.064Z,55.90
2017-09-20T02:28:50.706Z,55.80
2017-09-20T02:31:18.254Z,55.80
2017-09-20T02:33:45.777Z,55.50
2017-09-20T02:36:14.081Z,55.60
2017-09-20T02:38:41.610Z,55.50
2017-09-20T02:41:09.910Z,55.90
2017-09-20T02:43:37.470Z,55.90
2017-09-20T02:46:04.995Z,56.10
2017-09-20T02:48:32.519Z,55.80
2017-09-20T02:51:00.052Z,55.80
2017-09-20T02:53:27.582Z,55.80
2017-09-20T02:55:55.898Z,55.90
2017-09-20T02:58:23.419Z,55.90
2017-09-20T03:00:51.710Z,56.20
2017-09-20T03:03:19.233Z,56.20
2017-09-20T03:05:46.758Z,56.30
2017-09-20T03:08:14.305Z,56.40
2017-09-20T03:10:41.826Z,56.40
2017-09-20T03:13:10.113Z,56.50
2017-09-20T03:15:38.403Z,56.70
2017-09-20T03:18:05.930Z,56.70
2017-09-20T03:20:34.250Z,56.70
2017-09-20T03:23:01.773Z,56.70
2017-09-20T03:25:30.065Z,57.00
2017-09-20T03:27:57.596Z,57.00
2017-09-20T03:30:25.903Z,57.40
2017-09-20T03:32:53.458Z,57.40
2017-09-20T03:35:20.989Z,57.30
2017-09-20T03:37:49.292Z,57.20
2017-09-20T03:40:16.825Z,57.10
2017-09-20T03:42:45.126Z,57.40
2017-09-20T03:45:12.682Z,57.40
2017-09-20T03:47:40.206Z,57.40
2017-09-20T03:50:07.733Z,58.40
2017-09-20T03:52:35.264Z,57.80
2017-09-20T03:55:02.874Z,57.90
2017-09-20T03:57:30.426Z,57.80
2017-09-20T03:59:57.952Z,57.70
2017-09-20T04:02:25.508Z,57.50
2017-09-20T04:04:53.030Z,57.40
2017-09-20T04:07:21.326Z,57.60
2017-09-20T04:09:48.889Z,57.60
2017-09-20T04:12:16.422Z,57.70
2017-09-20T04:14:44.721Z,58.00
2017-09-20T04:17:12.246Z,58.00
2017-09-20T04:19:39.774Z,57.90
2017-09-20T04:22:07.338Z,58.00
2017-09-20T04:24:34.870Z,58.00
2017-09-20T04:27:02.401Z,58.10
2017-09-20T04:29:30.694Z,57.90
2017-09-20T04:31:58.218Z,57.90
2017-09-20T04:34:25.769Z,57.80
2017-09-20T04:36:53.415Z,58.10
2017-09-20T04:39:20.942Z,58.10
2017-09-20T04:41:48.469Z,58.10
2017-09-20T04:44:16.754Z,58.10
2017-09-20T04:46:44.301Z,58.10
2017-09-20T04:49:12.598Z,57.80
2017-09-20T04:51:40.127Z,57.80
2017-09-20T04:54:08.418Z,57.70
2017-09-20T04:56:36.728Z,57.50
2017-09-20T04:59:04.278Z,57.50
2017-09-20T05:01:31.802Z,57.70
2017-09-20T05:04:00.090Z,57.60
2017-09-20T05:06:27.617Z,57.60
2017-09-20T05:08:55.145Z,57.60
2017-09-20T05:11:22.732Z,57.50
2017-09-20T05:13:50.244Z,57.70
2017-09-20T05:16:17.770Z,58.20
2017-09-20T05:18:46.058Z,58.10
2017-09-20T05:21:13.586Z,58.00
2017-09-20T05:23:41.330Z,58.10
2017-09-20T05:26:08.867Z,58.20
2017-09-20T05:28:36.394Z,58.60
2017-09-20T05:31:04.685Z,58.90
2017-09-20T05:33:32.214Z,58.90
2017-09-20T05:36:00.535Z,58.40
2017-09-20T05:38:28.062Z,58.30
2017-09-20T05:40:56.364Z,58.50
2017-09-20T05:43:23.898Z,58.40
2017-09-20T05:45:51.426Z,58.80
2017-09-20T05:48:18.994Z,58.50
2017-09-20T05:50:47.293Z,58.40
2017-09-20T05:53:14.821Z,58.30
2017-09-20T05:55:43.457Z,58.80
2017-09-20T05:58:10.982Z,58.70
2017-09-20T06:00:39.298Z,58.20
2017-09-20T06:03:06.838Z,58.10
2017-09-20T06:05:34.374Z,57.40
2017-09-20T06:08:02.994Z,57.60
2017-09-20T06:10:30.524Z,57.50
2017-09-20T06:12:58.841Z,57.60
2017-09-20T06:15:26.374Z,57.50
2017-09-20T06:17:53.893Z,57.60
2017-09-20T06:20:21.426Z,57.00
2017-09-20T06:22:49.226Z,56.60
2017-09-20T06:25:17.558Z,56.40
2017-09-20T06:27:45.105Z,56.30
2017-09-20T06:30:12.650Z,55.90
2017-09-20T06:32:40.193Z,56.20
2017-09-20T06:35:08.484Z,55.90
2017-09-20T06:37:36.034Z,55.80
2017-09-20T06:40:03.562Z,55.50
2017-09-20T06:42:31.164Z,55.50
2017-09-20T06:44:58.697Z,55.50
2017-09-20T06:47:26.982Z,55.50
2017-09-20T06:49:54.537Z,55.50
2017-09-20T06:52:22.830Z,55.50
2017-09-20T06:54:50.353Z,55.50
2017-09-20T06:57:18.654Z,55.50
2017-09-20T06:59:46.178Z,55.40
2017-09-20T07:02:14.018Z,55.40
2017-09-20T07:04:41.558Z,55.60
2017-09-20T07:07:09.095Z,55.70
2017-09-20T07:09:36.677Z,55.60
2017-09-20T07:12:04.197Z,55.30
2017-09-20T07:14:32.726Z,54.50
2017-09-20T07:17:00.256Z,54.40
2017-09-20T07:19:27.954Z,54.40
2017-09-20T07:21:55.803Z,54.60
2017-09-20T07:24:23.333Z,54.60
2017-09-20T07:26:51.785Z,53.90
2017-09-20T07:29:20.090Z,53.80
2017-09-20T07:31:47.622Z,53.80
2017-09-20T07:34:15.442Z,53.70
2017-09-20T07:36:43.004Z,53.10
2017-09-20T07:39:10.518Z,52.60
2017-09-20T07:41:38.847Z,52.70
2017-09-20T07:44:06.377Z,52.60
2017-09-20T07:46:33.940Z,53.10
2017-09-20T07:49:01.470Z,53.10
2017-09-20T07:51:29.762Z,53.10
2017-09-20T07:53:57.282Z,53.10
2017-09-20T07:56:24.806Z,53.00
2017-09-20T07:58:52.469Z,53.50
2017-09-20T08:01:19.989Z,53.10
2017-09-20T08:03:48.278Z,52.40
2017-09-20T08:06:15.809Z,52.40
2017-09-20T08:08:44.098Z,52.00
2017-09-20T08:11:12.610Z,52.10
2017-09-20T08:13:40.155Z,52.00
2017-09-20T08:16:07.678Z,51.70
2017-09-20T08:18:35.974Z,52.00
2017-09-20T08:21:04.268Z,51.50
2017-09-20T08:23:31.831Z,51.30
2017-09-20T08:25:59.361Z,51.80
2017-09-20T08:28:27.693Z,51.40
2017-09-20T08:30:55.230Z,51.30
2017-09-20T08:33:22.786Z,51.40
2017-09-20T08:35:50.339Z,51.00
2017-09-20T08:38:17.861Z,51.60
2017-09-20T08:40:46.158Z,51.60
2017-09-20T08:43:13.685Z,51.50
2017-09-20T08:45:41.210Z,51.00
2017-09-20T08:48:08.782Z,50.60
2017-09-20T08:50:36.314Z,50.60
2017-09-20T08:53:03.850Z,50.30
2017-09-20T08:55:31.373Z,50.10
2017-09-20T08:57:58.898Z,49.70
2017-09-20T09:00:26.450Z,49.40
2017-09-20T09:02:53.979Z,50.00
2017-09-20T09:05:21.505Z,49.80
2017-09-20T09:07:49.035Z,50.00
2017-09-20T09:10:16.566Z,50.60
2017-09-20T09:12:44.119Z,50.30
2017-09-20T09:15:11.649Z,50.20
2017-09-20T09:17:39.946Z,49.10
2017-09-20T09:20:08.234Z,48.40
2017-09-20T09:22:35.762Z,48.30
2017-09-20T09:25:04.081Z,48.80
2017-09-20T09:27:31.624Z,48.70
2017-09-20T09:29:59.166Z,48.90
2017-09-20T09:32:27.452Z,48.50
2017-09-20T09:34:54.982Z,48.50
2017-09-20T09:37:22.539Z,48.30
2017-09-20T09:39:50.062Z,49.40
2017-09-20T09:42:17.587Z,49.00
2017-09-20T09:44:45.110Z,49.40
2017-09-20T09:47:12.730Z,49.00
2017-09-20T09:49:40.285Z,48.50
2017-09-20T09:52:07.814Z,48.30
2017-09-20T09:54:36.102Z,47.80
2017-09-20T09:57:03.621Z,47.80
2017-09-20T09:59:31.153Z,48.20
2017-09-20T10:01:58.706Z,48.40
2017-09-20T10:04:26.241Z,48.90
2017-09-20T10:06:53.762Z,48.50
2017-09-20T10:09:21.289Z,48.90
2017-09-20T10:11:48.822Z,48.20
2017-09-20T10:14:16.394Z,48.70
2017-09-20T10:16:43.918Z,48.80
2017-09-20T10:19:11.451Z,49.00
2017-09-20T10:21:38.983Z,49.00
2017-09-20T10:24:06.512Z,49.90
2017-09-20T10:26:34.282Z,50.00
2017-09-20T10:29:01.812Z,50.50
2017-09-20T10:31:30.099Z,50.40
2017-09-20T10:33:57.631Z,50.30
2017-09-20T10:36:25.929Z,50.60
2017-09-20T10:38:53.486Z,50.50
2017-09-20T10:41:21.015Z,50.80
2017-09-20T10:43:48.537Z,51.00
2017-09-20T10:46:16.057Z,51.10
2017-09-20T10:48:44.345Z,50.40
2017-09-20T10:51:11.897Z,50.40
2017-09-20T10:53:39.421Z,50.50
2017-09-20T10:56:06.946Z,50.60
2017-09-20T10:58:34.482Z,50.90
2017-09-20T11:01:02.011Z,50.70
2017-09-20T11:03:30.434Z,50.40
2017-09-20T11:05:57.962Z,50.40
2017-09-20T11:08:26.938Z,49.60
2017-09-20T11:10:55.235Z,49.50
2017-09-20T11:13:22.881Z,49.40
2017-09-20T11:15:51.330Z,48.50
2017-09-20T11:18:18.859Z,48.50
2017-09-20T11:20:46.389Z,48.30
2017-09-20T11:23:13.917Z,47.60
2017-09-20T11:25:41.440Z,47.30
2017-09-20T11:28:09.088Z,47.50
2017-09-20T11:30:37.449Z,47.90
2017-09-20T11:33:06.152Z,47.40
2017-09-20T11:35:33.819Z,47.40
2017-09-20T11:38:01.361Z,46.80
2017-09-20T11:40:28.916Z,46.60
2017-09-20T11:42:56.442Z,46.20
2017-09-20T11:45:24.742Z,45.60
2017-09-20T11:47:52.274Z,45.60
2017-09-20T11:50:19.971Z,45.90
2017-09-20T11:52:47.566Z,45.20
2017-09-20T11:55:15.086Z,45.40
2017-09-20T11:57:42.636Z,45.70
2017-09-20T12:00:10.164Z,45.50
2017-09-20T12:02:37.690Z,44.70
2017-09-20T12:05:05.243Z,45.00
2017-09-20T12:07:32.779Z,45.80
2017-09-20T12:10:00.361Z,45.60
2017-09-20T12:12:27.897Z,45.80
2017-09-20T12:14:55.419Z,46.40
2017-09-20T12:17:22.985Z,46.40
2017-09-20T12:19:51.294Z,47.40
2017-09-20T12:22:18.859Z,47.40
2017-09-20T12:24:46.389Z,48.10
2017-09-20T12:27:14.687Z,48.90
2017-09-20T12:29:42.252Z,48.90
2017-09-20T12:32:09.778Z,49.00
2017-09-20T12:34:38.075Z,49.70
2017-09-20T12:37:05.602Z,49.60
2017-09-20T12:39:33.126Z,50.00
2017-09-20T12:42:00.682Z,51.10
2017-09-20T12:44:28.217Z,50.00
2017-09-20T12:46:55.738Z,49.90
2017-09-20T12:49:24.046Z,50.30
2017-09-20T12:51:51.579Z,50.20
2017-09-20T12:54:19.902Z,49.60
2017-09-20T12:56:47.430Z,49.40
2017-09-20T12:59:14.957Z,49.20
2017-09-20T13:01:42.498Z,49.70
2017-09-20T13:04:10.026Z,49.00
2017-09-20T13:06:37.580Z,48.80
2017-09-20T13:09:05.106Z,48.30
2017-09-20T13:11:33.393Z,47.90
2017-09-20T13:14:01.683Z,48.00
2017-09-20T13:16:29.206Z,47.90
2017-09-20T13:18:56.814Z,47.70
2017-09-20T13:21:24.337Z,47.20
2017-09-20T13:23:52.638Z,46.30
2017-09-20T13:26:20.196Z,46.30
2017-09-20T13:28:47.726Z,45.80
2017-09-20T13:31:16.042Z,45.60
2017-09-20T13:33:43.562Z,45.60
2017-09-20T13:36:11.853Z,45.70
2017-09-20T13:38:39.382Z,45.60
2017-09-20T13:41:06.911Z,45.30
2017-09-20T13:43:34.466Z,45.70
2017-09-20T13:46:01.997Z,46.00
2017-09-20T13:48:29.526Z,46.30
2017-09-20T13:50:57.818Z,46.00
2017-09-20T13:53:25.355Z,46.00
2017-09-20T13:55:52.905Z,46.30
2017-09-20T13:58:20.430Z,45.70
2017-09-20T14:00:47.958Z,46.20
2017-09-20T14:03:15.482Z,45.00
2017-09-20T14:05:43.778Z,46.80
2017-09-20T14:08:12.101Z,47.70
2017-09-20T14:10:39.625Z,47.60
2017-09-20T14:13:07.206Z,48.70
2017-09-20T14:15:34.738Z,48.80
2017-09-20T14:18:03.026Z,49.20
2017-09-20T14:20:30.581Z,49.20
2017-09-20T14:22:58.109Z,48.40
2017-09-20T14:25:25.642Z,48.40
2017-09-20T14:27:53.197Z,46.30
2017-09-20T14:30:20.726Z,46.60
2017-09-20T14:32:48.283Z,45.90
2017-09-20T14:35:15.814Z,44.90
2017-09-20T14:37:44.102Z,43.00
2017-09-20T14:40:11.686Z,43.00
2017-09-20T14:42:39.218Z,41.30
2017-09-20T14:45:06.806Z,39.00
2017-09-20T14:47:34.362Z,37.60
2017-09-20T14:50:01.931Z,36.60
2017-09-20T14:52:29.510Z,34.80
2017-09-20T14:54:57.133Z,34.00
2017-09-20T14:57:24.714Z,34.20
2017-09-20T14:59:52.266Z,33.90
2017-09-20T15:02:19.822Z,33.10
2017-09-20T15:04:47.376Z,32.00
2017-09-20T15:07:14.930Z,30.60
2017-09-20T15:09:42.513Z,28.60
2017-09-20T15:12:10.069Z,27.70
2017-09-20T15:14:37.621Z,25.90
2017-09-20T15:17:05.177Z,26.50
2017-09-20T15:19:32.730Z,25.90
2017-09-20T15:22:00.310Z,26.70
2017-09-20T15:24:27.952Z,27.80
2017-09-20T15:26:55.511Z,28.20
2017-09-20T15:29:23.063Z,29.30
2017-09-20T15:31:50.617Z,29.80
2017-09-20T15:34:18.201Z,31.70
2017-09-20T15:36:45.763Z,32.60
2017-09-20T15:39:13.314Z,32.90
2017-09-20T15:41:40.865Z,33.70
2017-09-20T15:44:08.426Z,33.90
2017-09-20T15:46:36.114Z,33.10
2017-09-20T15:49:03.670Z,34.70
2017-09-20T15:51:31.230Z,35.30
2017-09-20T15:53:58.783Z,36.40
2017-09-20T15:56:26.336Z,37.30
2017-09-20T15:58:53.927Z,37.50
2017-09-20T16:01:21.483Z,38.50
2017-09-20T16:03:49.039Z,39.50
2017-09-20T16:06:17.367Z,41.40
2017-09-20T16:08:44.930Z,40.70
2017-09-20T16:11:12.534Z,41.50
2017-09-20T16:13:40.902Z,42.70
2017-09-20T16:16:08.455Z,42.70
2017-09-20T16:18:36.006Z,43.10
2017-09-20T16:21:03.782Z,43.90
2017-09-20T16:23:31.366Z,44.10
2017-09-20T16:25:59.690Z,44.60
2017-09-20T16:28:27.248Z,45.20
2017-09-20T16:30:54.802Z,45.00
2017-09-20T16:33:22.445Z,45.30
2017-09-20T16:35:50.030Z,45.70
2017-09-20T16:38:17.586Z,45.90
2017-09-20T16:40:45.141Z,46.20
2017-09-20T16:43:12.703Z,46.50
2017-09-20T16:45:40.260Z,46.90
2017-09-20T16:48:08.050Z,47.10
2017-09-20T16:50:35.606Z,47.50
2017-09-20T16:53:03.999Z,47.40
2017-09-20T16:55:31.621Z,47.70
2017-09-20T16:57:59.183Z,48.00
2017-09-20T17:00:26.770Z,48.40
2017-09-20T17:02:54.432Z,48.70
2017-09-20T17:05:21.998Z,49.20
2017-09-20T17:07:49.550Z,49.20
2017-09-20T17:10:18.613Z,49.50
2017-09-20T17:12:46.197Z,49.40
2017-09-20T17:15:13.756Z,49.60
2017-09-20T17:17:41.310Z,49.80
2017-09-20T17:20:08.866Z,50.10
2017-09-20T17:22:36.431Z,50.00
2017-09-20T17:25:04.010Z,49.80
2017-09-20T17:27:31.568Z,50.10
2017-09-20T17:29:59.122Z,49.40
2017-09-20T17:32:26.673Z,49.80
2017-09-20T17:34:54.233Z,50.00
2017-09-20T17:37:21.822Z,49.80
2017-09-20T17:39:50.140Z,49.70
2017-09-20T17:42:17.698Z,49.70
2017-09-20T17:44:45.258Z,49.70
2017-09-20T17:47:12.823Z,50.00
2017-09-20T17:49:40.690Z,50.20
2017-09-20T17:52:08.247Z,50.50
2017-09-20T17:54:35.806Z,50.40
2017-09-20T17:57:03.375Z,50.60
2017-09-20T17:59:30.939Z,50.50
2017-09-20T18:01:58.523Z,50.60
2017-09-20T18:04:26.162Z,50.70
2017-09-20T18:06:53.717Z,50.90
2017-09-20T18:09:21.268Z,51.20
2017-09-20T18:11:48.822Z,51.60
2017-09-20T18:14:16.414Z,51.90
2017-09-20T18:16:43.973Z,51.90
2017-09-20T18:19:11.533Z,52.10
2017-09-20T18:21:39.089Z,52.30
2017-09-20T18:24:06.678Z,52.80
2017-09-20T18:26:35.022Z,52.80
2017-09-20T18:29:02.583Z,52.80
2017-09-20T18:31:30.140Z,52.80
2017-09-20T18:33:57.689Z,52.70
2017-09-20T18:36:25.246Z,52.80
2017-09-20T18:38:52.866Z,52.90
2017-09-20T18:41:20.425Z,53.10
2017-09-20T18:43:47.995Z,53.30
2017-09-20T18:46:15.550Z,53.30
2017-09-20T18:48:43.113Z,53.50
2017-09-20T18:51:10.711Z,53.60
2017-09-20T18:53:38.266Z,53.40
2017-09-20T18:56:05.822Z,53.70
2017-09-20T18:58:33.378Z,53.80
2017-09-20T19:01:00.931Z,53.80
2017-09-20T19:03:28.515Z,53.70
2017-09-20T19:05:56.847Z,53.80
2017-09-20T19:08:24.418Z,53.70
2017-09-20T19:10:51.974Z,53.90
2017-09-20T19:13:19.534Z,54.20
2017-09-20T19:15:47.117Z,54.10
2017-09-20T19:18:14.674Z,54.20
2017-09-20T19:20:42.234Z,54.40
2017-09-20T19:23:11.298Z,54.30
2017-09-20T19:25:38.858Z,54.30
2017-09-20T19:28:06.455Z,54.30
2017-09-20T19:30:34.017Z,54.10
2017-09-20T19:33:01.578Z,54.20
2017-09-20T19:35:29.622Z,54.20
2017-09-20T19:37:57.382Z,54.00
2017-09-20T19:40:25.059Z,54.20
2017-09-20T19:42:52.791Z,54.30
2017-09-20T19:45:20.351Z,54.40
2017-09-20T19:47:48.030Z,54.40
2017-09-20T19:50:15.591Z,54.50
2017-09-20T19:52:44.252Z,54.70
2017-09-20T19:55:11.808Z,54.60
2017-09-20T19:57:39.362Z,54.50
2017-09-20T20:00:06.918Z,54.40
2017-09-20T20:02:34.501Z,54.30
2017-09-20T20:05:02.086Z,54.50
2017-09-20T20:07:29.638Z,54.60
2017-09-20T20:09:57.959Z,54.90
2017-09-20T20:12:25.510Z,54.70
2017-09-20T20:14:53.830Z,54.70
2017-09-20T20:17:21.407Z,54.60
2017-09-20T20:19:48.962Z,54.50
2017-09-20T20:22:16.514Z,54.50
2017-09-20T20:24:44.069Z,54.80
2017-09-20T20:27:11.618Z,54.90
2017-09-20T20:29:39.202Z,55.10
2017-09-20T20:32:06.770Z,55.20
2017-09-20T20:34:34.330Z,55.10
2017-09-20T20:37:01.886Z,55.20
2017-09-20T20:39:29.442Z,55.30
2017-09-20T20:41:57.022Z,55.50
2017-09-20T20:44:25.345Z,56.00
2017-09-20T20:46:52.899Z,56.00
2017-09-20T20:49:20.454Z,56.10
2017-09-20T20:51:48.012Z,55.90
2017-09-20T20:54:15.602Z,56.00
2017-09-20T20:56:43.154Z,55.90
2017-09-20T20:59:10.714Z,55.50
2017-09-20T21:01:38.288Z,55.80
2017-09-20T21:04:05.837Z,55.80
2017-09-20T21:06:33.429Z,55.60
2017-09-20T21:09:01.754Z,55.80
2017-09-20T21:11:29.318Z,55.70
2017-09-20T21:13:56.878Z,56.40
2017-09-20T21:16:24.434Z,56.40
2017-09-20T21:18:52.015Z,56.20
2017-09-20T21:21:19.574Z,56.50
2017-09-20T21:23:47.921Z,56.80
2017-09-20T21:26:15.477Z,56.70
2017-09-20T21:28:43.037Z,56.90
2017-09-20T21:31:10.619Z,56.60
2017-09-20T21:33:38.175Z,56.50
2017-09-20T21:36:05.768Z,56.80
2017-09-20T21:38:34.090Z,56.90
2017-09-20T21:41:01.650Z,56.80
2017-09-20T21:43:29.447Z,56.80
2017-09-20T21:45:57.002Z,56.80
2017-09-20T21:48:24.554Z,56.70
2017-09-20T21:50:52.118Z,56.50
2017-09-20T21:53:19.777Z,56.80
2017-09-20T21:55:47.362Z,56.90
2017-09-20T21:58:14.918Z,56.90
2017-09-20T22:00:42.479Z,56.90
2017-09-20T22:03:10.804Z,56.90
2017-09-20T22:05:38.364Z,56.80
2017-09-20T22:08:05.973Z,56.90
2017-09-20T22:10:33.523Z,57.30
2017-09-20T22:13:01.077Z,57.50
2017-09-20T22:15:40.657Z,57.30
2017-09-20T22:18:20.075Z,57.40
2017-09-20T22:21:00.241Z,57.90
2017-09-20T22:23:40.501Z,58.00
2017-09-20T22:26:20.650Z,58.10
2017-09-20T22:28:48.973Z,58.20
2017-09-20T22:31:16.559Z,58.20
2017-09-20T22:33:44.114Z,58.70
2017-09-20T22:36:11.667Z,58.70
2017-09-20T22:38:39.226Z,59.10
2017-09-20T22:41:06.777Z,58.90
2017-09-20T22:43:34.544Z,58.60
2017-09-20T22:46:02.094Z,58.90
2017-09-20T22:48:29.649Z,59.50
2017-09-20T22:50:57.209Z,59.50
2017-09-20T22:53:24.766Z,59.70
2017-09-20T22:55:52.350Z,59.90
2017-09-20T22:58:19.901Z,59.80
2017-09-20T23:00:47.459Z,59.70
2017-09-20T23:03:15.010Z,59.60
2017-09-20T23:05:42.686Z,59.50
2017-09-20T23:08:10.286Z,59.40
2017-09-20T23:10:37.846Z,59.20
2017-09-20T23:13:05.398Z,59.20
2017-09-20T23:15:33.713Z,59.30
2017-09-20T23:18:01.270Z,59.20
2017-09-20T23:20:28.854Z,60.20
2017-09-20T23:22:56.431Z,59.30
2017-09-20T23:25:24.755Z,59.80
2017-09-20T23:27:52.310Z,59.30
2017-09-20T23:30:19.875Z,59.50
2017-09-20T23:32:47.666Z,59.20
2017-09-20T23:35:15.228Z,59.60
2017-09-20T23:37:42.784Z,60.00
2017-09-20T23:40:10.342Z,59.80
2017-09-20T23:42:37.903Z,60.10
2017-09-20T23:45:05.487Z,61.50
2017-09-20T23:47:33.811Z,62.20
2017-09-20T23:50:01.372Z,62.20
2017-09-20T23:52:28.929Z,62.60
2017-09-20T23:54:56.485Z,62.90
2017-09-20T23:57:24.061Z,62.60
2017-09-20T23:59:51.611Z,61.90
